sensor_id;sensor_type;location;lat;lon;timestamp;P1;durP1;ratioP1;P2;durP2;ratioP2
79706;SDS011;69200;53.612;-2.416;2023-04-25T00:02:17;4.53;;;1.27;;
79706;SDS011;69200;53.612;-2.416;2023-04-25T00:04:43;7.38;;;1.30;;
79706;SDS011;69200;53.612;-2.416;2023-04-25T00:07:08;3.78;;;1.10;;
79706;SDS011;69200;53.612;-2.416;2023-04-25T00:09:34;11.77;;;1.48;;
79706;SDS011;69200;53.612;-2.416;2023-04-25T00:11:59;5.50;;;1.02;;
79706;SDS011;69200;53.612;-2.416;2023-04-25T00:14:26;4.90;;;1.27;;
79706;SDS011;69200;53.612;-2.416;2023-04-25T00:16:52;6.25;;;1.30;;
79706;SDS011;69200;53.612;-2.416;2023-04-25T00:19:19;6.38;;;1.40;;
79706;SDS011;69200;53.612;-2.416;2023-04-25T00:21:44;7.90;;;1.60;;
79706;SDS011;69200;53.612;-2.416;2023-04-25T00:24:11;8.00;;;1.38;;
79706;SDS011;69200;53.612;-2.416;2023-04-25T00:26:37;7.90;;;1.17;;
79706;SDS011;69200;53.612;-2.416;2023-04-25T00:29:02;7.57;;;1.30;;
79706;SDS011;69200;53.612;-2.416;2023-04-25T00:31:28;6.03;;;1.50;;
79706;SDS011;69200;53.612;-2.416;2023-04-25T00:33:54;5.40;;;1.20;;
79706;SDS011;69200;53.612;-2.416;2023-04-25T00:36:19;7.32;;;1.10;;
79706;SDS011;69200;53.612;-2.416;2023-04-25T00:38:45;6.75;;;1.65;;
79706;SDS011;69200;53.612;-2.416;2023-04-25T00:41:10;8.93;;;1.77;;
79706;SDS011;69200;53.612;-2.416;2023-04-25T00:43:36;7.05;;;1.35;;
79706;SDS011;69200;53.612;-2.416;2023-04-25T00:46:02;6.95;;;1.58;;
79706;SDS011;69200;53.612;-2.416;2023-04-25T00:48:28;7.18;;;1.67;;
79706;SDS011;69200;53.612;-2.416;2023-04-25T00:50:55;6.05;;;1.52;;
79706;SDS011;69200;53.612;-2.416;2023-04-25T00:53:23;4.60;;;1.30;;
79706;SDS011;69200;53.612;-2.416;2023-04-25T00:55:49;6.55;;;1.20;;
79706;SDS011;69200;53.612;-2.416;2023-04-25T00:58:18;5.07;;;1.33;;
79706;SDS011;69200;53.612;-2.416;2023-04-25T01:00:45;5.80;;;1.50;;
79706;SDS011;69200;53.612;-2.416;2023-04-25T01:03:12;7.47;;;1.75;;
79706;SDS011;69200;53.612;-2.416;2023-04-25T01:05:39;11.30;;;1.67;;
79706;SDS011;69200;53.612;-2.416;2023-04-25T01:08:06;10.07;;;2.25;;
79706;SDS011;69200;53.612;-2.416;2023-04-25T01:10:32;9.73;;;2.00;;
79706;SDS011;69200;53.612;-2.416;2023-04-25T01:12:57;5.90;;;1.77;;
79706;SDS011;69200;53.612;-2.416;2023-04-25T01:15:22;9.05;;;2.20;;
79706;SDS011;69200;53.612;-2.416;2023-04-25T01:17:48;7.72;;;1.92;;
79706;SDS011;69200;53.612;-2.416;2023-04-25T01:20:14;5.90;;;1.55;;
79706;SDS011;69200;53.612;-2.416;2023-04-25T01:22:40;8.23;;;1.90;;
79706;SDS011;69200;53.612;-2.416;2023-04-25T01:25:07;8.10;;;1.75;;
79706;SDS011;69200;53.612;-2.416;2023-04-25T01:27:32;6.25;;;1.42;;
79706;SDS011;69200;53.612;-2.416;2023-04-25T01:29:58;6.22;;;1.90;;
79706;SDS011;69200;53.612;-2.416;2023-04-25T01:32:24;7.15;;;1.77;;
79706;SDS011;69200;53.612;-2.416;2023-04-25T01:34:51;4.88;;;1.50;;
79706;SDS011;69200;53.612;-2.416;2023-04-25T01:37:17;8.00;;;2.00;;
79706;SDS011;69200;53.612;-2.416;2023-04-25T01:39:42;9.05;;;1.77;;
79706;SDS011;69200;53.612;-2.416;2023-04-25T01:42:09;5.32;;;1.85;;
79706;SDS011;69200;53.612;-2.416;2023-04-25T01:44:34;9.23;;;1.90;;
79706;SDS011;69200;53.612;-2.416;2023-04-25T01:47:00;8.63;;;2.03;;
79706;SDS011;69200;53.612;-2.416;2023-04-25T01:49:25;8.18;;;2.35;;
79706;SDS011;69200;53.612;-2.416;2023-04-25T01:51:51;8.43;;;2.00;;
79706;SDS011;69200;53.612;-2.416;2023-04-25T01:54:16;5.05;;;1.88;;
79706;SDS011;69200;53.612;-2.416;2023-04-25T01:56:43;6.55;;;2.20;;
79706;SDS011;69200;53.612;-2.416;2023-04-25T01:59:08;8.20;;;1.70;;
79706;SDS011;69200;53.612;-2.416;2023-04-25T02:01:34;9.85;;;2.25;;
79706;SDS011;69200;53.612;-2.416;2023-04-25T02:03:59;7.78;;;2.47;;
79706;SDS011;69200;53.612;-2.416;2023-04-25T02:06:25;8.88;;;2.20;;
79706;SDS011;69200;53.612;-2.416;2023-04-25T02:08:50;7.55;;;2.03;;
79706;SDS011;69200;53.612;-2.416;2023-04-25T02:11:16;7.72;;;1.95;;
79706;SDS011;69200;53.612;-2.416;2023-04-25T02:13:41;11.13;;;2.28;;
79706;SDS011;69200;53.612;-2.416;2023-04-25T02:16:06;11.35;;;2.20;;
79706;SDS011;69200;53.612;-2.416;2023-04-25T02:18:32;7.40;;;2.00;;
79706;SDS011;69200;53.612;-2.416;2023-04-25T02:20:58;7.40;;;2.05;;
79706;SDS011;69200;53.612;-2.416;2023-04-25T02:23:24;8.00;;;2.15;;
79706;SDS011;69200;53.612;-2.416;2023-04-25T02:25:50;4.88;;;2.00;;
79706;SDS011;69200;53.612;-2.416;2023-04-25T02:28:16;9.85;;;2.60;;
79706;SDS011;69200;53.612;-2.416;2023-04-25T02:30:42;11.35;;;3.67;;
79706;SDS011;69200;53.612;-2.416;2023-04-25T02:33:07;12.20;;;4.15;;
79706;SDS011;69200;53.612;-2.416;2023-04-25T02:35:33;16.05;;;4.60;;
79706;SDS011;69200;53.612;-2.416;2023-04-25T02:37:58;21.30;;;5.00;;
79706;SDS011;69200;53.612;-2.416;2023-04-25T02:40:23;15.07;;;5.00;;
79706;SDS011;69200;53.612;-2.416;2023-04-25T02:42:49;13.95;;;4.97;;
79706;SDS011;69200;53.612;-2.416;2023-04-25T02:45:14;12.85;;;4.50;;
79706;SDS011;69200;53.612;-2.416;2023-04-25T02:47:40;15.10;;;5.38;;
79706;SDS011;69200;53.612;-2.416;2023-04-25T02:50:05;13.80;;;3.90;;
79706;SDS011;69200;53.612;-2.416;2023-04-25T02:52:31;13.50;;;3.08;;
79706;SDS011;69200;53.612;-2.416;2023-04-25T02:54:56;9.65;;;2.92;;
79706;SDS011;69200;53.612;-2.416;2023-04-25T02:57:22;15.02;;;5.45;;
79706;SDS011;69200;53.612;-2.416;2023-04-25T02:59:47;12.77;;;5.10;;
79706;SDS011;69200;53.612;-2.416;2023-04-25T03:02:13;16.33;;;5.68;;
79706;SDS011;69200;53.612;-2.416;2023-04-25T03:04:38;15.70;;;5.55;;
79706;SDS011;69200;53.612;-2.416;2023-04-25T03:07:03;17.52;;;5.25;;
79706;SDS011;69200;53.612;-2.416;2023-04-25T03:09:29;12.15;;;4.40;;
79706;SDS011;69200;53.612;-2.416;2023-04-25T03:11:54;12.60;;;4.35;;
79706;SDS011;69200;53.612;-2.416;2023-04-25T03:14:20;14.88;;;4.95;;
79706;SDS011;69200;53.612;-2.416;2023-04-25T03:16:45;11.15;;;4.47;;
79706;SDS011;69200;53.612;-2.416;2023-04-25T03:19:11;12.18;;;4.28;;
79706;SDS011;69200;53.612;-2.416;2023-04-25T03:21:36;16.08;;;4.22;;
79706;SDS011;69200;53.612;-2.416;2023-04-25T03:24:02;12.32;;;4.30;;
79706;SDS011;69200;53.612;-2.416;2023-04-25T03:26:29;10.70;;;3.58;;
79706;SDS011;69200;53.612;-2.416;2023-04-25T03:28:54;7.68;;;2.72;;
79706;SDS011;69200;53.612;-2.416;2023-04-25T03:31:20;8.60;;;2.70;;
79706;SDS011;69200;53.612;-2.416;2023-04-25T03:33:45;10.75;;;3.05;;
79706;SDS011;69200;53.612;-2.416;2023-04-25T03:36:11;10.18;;;2.80;;
79706;SDS011;69200;53.612;-2.416;2023-04-25T03:38:36;14.25;;;3.90;;
79706;SDS011;69200;53.612;-2.416;2023-04-25T03:41:02;13.15;;;3.70;;
79706;SDS011;69200;53.612;-2.416;2023-04-25T03:43:27;14.00;;;4.70;;
79706;SDS011;69200;53.612;-2.416;2023-04-25T03:45:53;11.45;;;4.40;;
79706;SDS011;69200;53.612;-2.416;2023-04-25T03:48:18;12.25;;;3.53;;
79706;SDS011;69200;53.612;-2.416;2023-04-25T03:50:46;11.07;;;2.80;;
79706;SDS011;69200;53.612;-2.416;2023-04-25T03:53:12;7.88;;;2.13;;
79706;SDS011;69200;53.612;-2.416;2023-04-25T03:55:37;9.32;;;2.50;;
79706;SDS011;69200;53.612;-2.416;2023-04-25T03:58:02;9.02;;;2.67;;
79706;SDS011;69200;53.612;-2.416;2023-04-25T04:00:28;7.57;;;2.83;;
79706;SDS011;69200;53.612;-2.416;2023-04-25T04:02:53;13.07;;;2.83;;
79706;SDS011;69200;53.612;-2.416;2023-04-25T04:05:19;8.02;;;2.83;;
79706;SDS011;69200;53.612;-2.416;2023-04-25T04:07:44;13.70;;;3.08;;
79706;SDS011;69200;53.612;-2.416;2023-04-25T04:10:10;8.45;;;2.88;;
79706;SDS011;69200;53.612;-2.416;2023-04-25T04:12:35;9.93;;;2.80;;
79706;SDS011;69200;53.612;-2.416;2023-04-25T04:15:04;9.32;;;3.10;;
79706;SDS011;69200;53.612;-2.416;2023-04-25T04:17:31;5.82;;;2.15;;
79706;SDS011;69200;53.612;-2.416;2023-04-25T04:19:56;10.55;;;2.72;;
79706;SDS011;69200;53.612;-2.416;2023-04-25T04:22:22;8.13;;;2.33;;
79706;SDS011;69200;53.612;-2.416;2023-04-25T04:24:48;6.68;;;2.25;;
79706;SDS011;69200;53.612;-2.416;2023-04-25T04:27:15;9.32;;;2.70;;
79706;SDS011;69200;53.612;-2.416;2023-04-25T04:29:42;10.10;;;2.38;;
79706;SDS011;69200;53.612;-2.416;2023-04-25T04:32:08;10.73;;;2.55;;
79706;SDS011;69200;53.612;-2.416;2023-04-25T04:34:33;7.47;;;2.28;;
79706;SDS011;69200;53.612;-2.416;2023-04-25T04:36:59;5.60;;;2.00;;
79706;SDS011;69200;53.612;-2.416;2023-04-25T04:39:25;7.13;;;2.03;;
79706;SDS011;69200;53.612;-2.416;2023-04-25T04:41:50;7.15;;;2.22;;
79706;SDS011;69200;53.612;-2.416;2023-04-25T04:44:16;7.93;;;2.20;;
79706;SDS011;69200;53.612;-2.416;2023-04-25T04:46:41;8.98;;;2.92;;
79706;SDS011;69200;53.612;-2.416;2023-04-25T04:49:10;9.32;;;3.15;;
79706;SDS011;69200;53.612;-2.416;2023-04-25T04:51:37;9.00;;;3.00;;
79706;SDS011;69200;53.612;-2.416;2023-04-25T04:54:03;10.00;;;3.05;;
79706;SDS011;69200;53.612;-2.416;2023-04-25T04:56:29;11.60;;;3.13;;
79706;SDS011;69200;53.612;-2.416;2023-04-25T04:58:58;11.82;;;3.22;;
79706;SDS011;69200;53.612;-2.416;2023-04-25T05:01:24;11.20;;;3.45;;
79706;SDS011;69200;53.612;-2.416;2023-04-25T05:03:50;11.35;;;3.08;;
79706;SDS011;69200;53.612;-2.416;2023-04-25T05:06:17;12.68;;;4.20;;
79706;SDS011;69200;53.612;-2.416;2023-04-25T05:08:43;13.35;;;4.78;;
79706;SDS011;69200;53.612;-2.416;2023-04-25T05:11:09;16.33;;;5.75;;
79706;SDS011;69200;53.612;-2.416;2023-04-25T05:13:34;16.27;;;4.32;;
79706;SDS011;69200;53.612;-2.416;2023-04-25T05:16:00;12.32;;;4.00;;
79706;SDS011;69200;53.612;-2.416;2023-04-25T05:18:25;9.73;;;2.75;;
79706;SDS011;69200;53.612;-2.416;2023-04-25T05:20:51;6.28;;;2.10;;
79706;SDS011;69200;53.612;-2.416;2023-04-25T05:23:16;8.75;;;2.78;;
79706;SDS011;69200;53.612;-2.416;2023-04-25T05:25:41;8.75;;;3.08;;
79706;SDS011;69200;53.612;-2.416;2023-04-25T05:28:07;9.50;;;2.47;;
79706;SDS011;69200;53.612;-2.416;2023-04-25T05:30:33;8.95;;;2.47;;
79706;SDS011;69200;53.612;-2.416;2023-04-25T05:32:59;9.40;;;2.20;;
79706;SDS011;69200;53.612;-2.416;2023-04-25T05:35:25;10.80;;;2.95;;
79706;SDS011;69200;53.612;-2.416;2023-04-25T05:37:51;6.65;;;2.15;;
79706;SDS011;69200;53.612;-2.416;2023-04-25T05:40:16;7.20;;;2.05;;
79706;SDS011;69200;53.612;-2.416;2023-04-25T05:42:41;9.32;;;2.63;;
79706;SDS011;69200;53.612;-2.416;2023-04-25T05:45:07;9.32;;;2.40;;
79706;SDS011;69200;53.612;-2.416;2023-04-25T05:47:32;9.43;;;1.95;;
79706;SDS011;69200;53.612;-2.416;2023-04-25T05:49:58;7.60;;;2.20;;
79706;SDS011;69200;53.612;-2.416;2023-04-25T05:52:23;8.60;;;1.88;;
79706;SDS011;69200;53.612;-2.416;2023-04-25T05:54:48;8.52;;;2.15;;
79706;SDS011;69200;53.612;-2.416;2023-04-25T05:57:23;8.50;;;2.38;;
79706;SDS011;69200;53.612;-2.416;2023-04-25T05:59:50;5.47;;;2.05;;
79706;SDS011;69200;53.612;-2.416;2023-04-25T06:02:16;6.68;;;2.10;;
79706;SDS011;69200;53.612;-2.416;2023-04-25T06:04:42;7.10;;;2.08;;
79706;SDS011;69200;53.612;-2.416;2023-04-25T06:07:07;11.98;;;2.53;;
79706;SDS011;69200;53.612;-2.416;2023-04-25T06:09:33;6.30;;;1.88;;
79706;SDS011;69200;53.612;-2.416;2023-04-25T06:11:59;6.60;;;2.38;;
79706;SDS011;69200;53.612;-2.416;2023-04-25T06:14:24;7.25;;;1.77;;
79706;SDS011;69200;53.612;-2.416;2023-04-25T06:16:50;8.43;;;2.17;;
79706;SDS011;69200;53.612;-2.416;2023-04-25T06:19:15;9.27;;;2.33;;
79706;SDS011;69200;53.612;-2.416;2023-04-25T06:21:43;9.50;;;2.30;;
79706;SDS011;69200;53.612;-2.416;2023-04-25T06:24:09;8.68;;;2.65;;
79706;SDS011;69200;53.612;-2.416;2023-04-25T06:26:34;9.90;;;3.70;;
79706;SDS011;69200;53.612;-2.416;2023-04-25T06:28:59;11.15;;;3.72;;
79706;SDS011;69200;53.612;-2.416;2023-04-25T06:31:25;11.77;;;4.15;;
79706;SDS011;69200;53.612;-2.416;2023-04-25T06:33:50;11.52;;;3.75;;
79706;SDS011;69200;53.612;-2.416;2023-04-25T06:36:19;10.07;;;4.47;;
79706;SDS011;69200;53.612;-2.416;2023-04-25T06:38:49;12.35;;;4.57;;
79706;SDS011;69200;53.612;-2.416;2023-04-25T06:41:15;10.98;;;4.65;;
79706;SDS011;69200;53.612;-2.416;2023-04-25T06:43:41;12.70;;;5.63;;
79706;SDS011;69200;53.612;-2.416;2023-04-25T06:46:06;15.17;;;5.77;;
79706;SDS011;69200;53.612;-2.416;2023-04-25T06:48:31;15.38;;;6.00;;
79706;SDS011;69200;53.612;-2.416;2023-04-25T06:50:57;14.73;;;4.70;;
79706;SDS011;69200;53.612;-2.416;2023-04-25T06:53:22;15.00;;;5.03;;
79706;SDS011;69200;53.612;-2.416;2023-04-25T06:55:47;13.02;;;6.00;;
79706;SDS011;69200;53.612;-2.416;2023-04-25T06:58:13;15.30;;;5.60;;
79706;SDS011;69200;53.612;-2.416;2023-04-25T07:00:38;10.82;;;3.92;;
79706;SDS011;69200;53.612;-2.416;2023-04-25T07:03:03;13.88;;;4.72;;
79706;SDS011;69200;53.612;-2.416;2023-04-25T07:05:29;9.40;;;3.75;;
79706;SDS011;69200;53.612;-2.416;2023-04-25T07:07:54;10.27;;;3.70;;
79706;SDS011;69200;53.612;-2.416;2023-04-25T07:10:20;8.88;;;3.67;;
79706;SDS011;69200;53.612;-2.416;2023-04-25T07:12:46;10.43;;;3.83;;
79706;SDS011;69200;53.612;-2.416;2023-04-25T07:15:11;9.85;;;3.65;;
79706;SDS011;69200;53.612;-2.416;2023-04-25T07:17:37;6.72;;;2.50;;
79706;SDS011;69200;53.612;-2.416;2023-04-25T07:20:03;6.63;;;2.10;;
79706;SDS011;69200;53.612;-2.416;2023-04-25T07:22:29;5.88;;;1.48;;
79706;SDS011;69200;53.612;-2.416;2023-04-25T07:24:54;5.68;;;1.10;;
79706;SDS011;69200;53.612;-2.416;2023-04-25T07:27:20;5.90;;;1.23;;
79706;SDS011;69200;53.612;-2.416;2023-04-25T07:29:45;3.28;;;0.90;;
79706;SDS011;69200;53.612;-2.416;2023-04-25T07:32:11;4.80;;;1.10;;
79706;SDS011;69200;53.612;-2.416;2023-04-25T07:34:38;4.63;;;1.10;;
79706;SDS011;69200;53.612;-2.416;2023-04-25T07:37:04;5.50;;;1.00;;
79706;SDS011;69200;53.612;-2.416;2023-04-25T07:39:30;6.35;;;1.30;;
79706;SDS011;69200;53.612;-2.416;2023-04-25T07:41:55;3.17;;;1.10;;
79706;SDS011;69200;53.612;-2.416;2023-04-25T07:44:23;3.63;;;1.10;;
79706;SDS011;69200;53.612;-2.416;2023-04-25T07:46:49;4.90;;;0.93;;
79706;SDS011;69200;53.612;-2.416;2023-04-25T07:49:14;4.72;;;1.33;;
79706;SDS011;69200;53.612;-2.416;2023-04-25T07:51:40;4.93;;;1.05;;
79706;SDS011;69200;53.612;-2.416;2023-04-25T07:54:06;4.13;;;0.93;;
79706;SDS011;69200;53.612;-2.416;2023-04-25T07:56:31;3.42;;;0.80;;
79706;SDS011;69200;53.612;-2.416;2023-04-25T07:58:57;5.10;;;1.10;;
79706;SDS011;69200;53.612;-2.416;2023-04-25T08:01:23;4.68;;;1.10;;
79706;SDS011;69200;53.612;-2.416;2023-04-25T08:03:48;4.70;;;1.10;;
79706;SDS011;69200;53.612;-2.416;2023-04-25T08:06:14;4.07;;;0.88;;
79706;SDS011;69200;53.612;-2.416;2023-04-25T08:08:40;3.40;;;0.80;;
79706;SDS011;69200;53.612;-2.416;2023-04-25T08:11:05;3.13;;;0.90;;
79706;SDS011;69200;53.612;-2.416;2023-04-25T08:13:30;3.40;;;0.82;;
79706;SDS011;69200;53.612;-2.416;2023-04-25T08:15:56;2.63;;;0.93;;
79706;SDS011;69200;53.612;-2.416;2023-04-25T08:18:21;4.97;;;1.10;;
79706;SDS011;69200;53.612;-2.416;2023-04-25T08:20:46;2.92;;;0.77;;
79706;SDS011;69200;53.612;-2.416;2023-04-25T08:23:12;3.35;;;1.00;;
79706;SDS011;69200;53.612;-2.416;2023-04-25T08:25:38;3.28;;;1.05;;
79706;SDS011;69200;53.612;-2.416;2023-04-25T08:28:03;4.28;;;1.02;;
79706;SDS011;69200;53.612;-2.416;2023-04-25T08:30:29;5.32;;;1.10;;
79706;SDS011;69200;53.612;-2.416;2023-04-25T08:32:54;3.20;;;0.90;;
79706;SDS011;69200;53.612;-2.416;2023-04-25T08:35:20;4.55;;;1.20;;
79706;SDS011;69200;53.612;-2.416;2023-04-25T08:37:45;3.33;;;0.90;;
79706;SDS011;69200;53.612;-2.416;2023-04-25T08:40:11;3.75;;;1.08;;
79706;SDS011;69200;53.612;-2.416;2023-04-25T08:42:39;4.07;;;1.10;;
79706;SDS011;69200;53.612;-2.416;2023-04-25T08:45:06;8.13;;;1.80;;
79706;SDS011;69200;53.612;-2.416;2023-04-25T08:47:33;8.05;;;1.30;;
79706;SDS011;69200;53.612;-2.416;2023-04-25T08:49:59;8.15;;;1.02;;
79706;SDS011;69200;53.612;-2.416;2023-04-25T08:52:27;7.65;;;1.35;;
79706;SDS011;69200;53.612;-2.416;2023-04-25T08:54:55;5.35;;;1.25;;
79706;SDS011;69200;53.612;-2.416;2023-04-25T08:57:22;3.72;;;0.90;;
79706;SDS011;69200;53.612;-2.416;2023-04-25T08:59:48;4.32;;;1.00;;
79706;SDS011;69200;53.612;-2.416;2023-04-25T09:02:14;4.10;;;0.90;;
79706;SDS011;69200;53.612;-2.416;2023-04-25T09:04:42;3.05;;;1.05;;
79706;SDS011;69200;53.612;-2.416;2023-04-25T09:07:09;5.30;;;1.30;;
79706;SDS011;69200;53.612;-2.416;2023-04-25T09:09:34;6.65;;;1.42;;
79706;SDS011;69200;53.612;-2.416;2023-04-25T09:12:01;2.95;;;0.82;;
79706;SDS011;69200;53.612;-2.416;2023-04-25T09:14:26;3.67;;;0.98;;
79706;SDS011;69200;53.612;-2.416;2023-04-25T09:19:39;6.35;;;1.17;;
79706;SDS011;69200;53.612;-2.416;2023-04-25T09:22:05;4.47;;;1.10;;
79706;SDS011;69200;53.612;-2.416;2023-04-25T09:27:09;3.45;;;1.20;;
79706;SDS011;69200;53.612;-2.416;2023-04-25T09:29:42;6.15;;;1.08;;
79706;SDS011;69200;53.612;-2.416;2023-04-25T09:32:26;6.15;;;2.33;;
79706;SDS011;69200;53.612;-2.416;2023-04-25T09:34:53;4.65;;;1.20;;
79706;SDS011;69200;53.612;-2.416;2023-04-25T09:37:28;4.63;;;1.10;;
79706;SDS011;69200;53.612;-2.416;2023-04-25T09:39:56;6.32;;;1.73;;
79706;SDS011;69200;53.612;-2.416;2023-04-25T09:42:24;7.63;;;1.58;;
79706;SDS011;69200;53.612;-2.416;2023-04-25T09:44:55;4.13;;;1.20;;
79706;SDS011;69200;53.612;-2.416;2023-04-25T09:47:22;3.63;;;1.13;;
79706;SDS011;69200;53.612;-2.416;2023-04-25T09:49:49;5.40;;;1.75;;
79706;SDS011;69200;53.612;-2.416;2023-04-25T09:52:16;5.63;;;1.27;;
79706;SDS011;69200;53.612;-2.416;2023-04-25T09:54:45;6.90;;;1.23;;
79706;SDS011;69200;53.612;-2.416;2023-04-25T09:57:16;4.45;;;1.48;;
79706;SDS011;69200;53.612;-2.416;2023-04-25T10:00:01;5.80;;;1.40;;
79706;SDS011;69200;53.612;-2.416;2023-04-25T10:02:30;4.25;;;1.23;;
79706;SDS011;69200;53.612;-2.416;2023-04-25T10:04:58;5.43;;;1.40;;
79706;SDS011;69200;53.612;-2.416;2023-04-25T10:07:26;4.07;;;1.08;;
79706;SDS011;69200;53.612;-2.416;2023-04-25T10:09:58;3.72;;;1.10;;
79706;SDS011;69200;53.612;-2.416;2023-04-25T10:12:26;4.97;;;1.67;;
79706;SDS011;69200;53.612;-2.416;2023-04-25T10:14:52;4.85;;;1.45;;
79706;SDS011;69200;53.612;-2.416;2023-04-25T10:17:17;2.90;;;0.93;;
79706;SDS011;69200;53.612;-2.416;2023-04-25T10:19:45;4.68;;;1.17;;
79706;SDS011;69200;53.612;-2.416;2023-04-25T10:22:20;5.28;;;1.27;;
79706;SDS011;69200;53.612;-2.416;2023-04-25T10:24:57;4.75;;;1.50;;
79706;SDS011;69200;53.612;-2.416;2023-04-25T10:27:23;7.30;;;1.40;;
79706;SDS011;69200;53.612;-2.416;2023-04-25T10:32:36;4.70;;;1.13;;
79706;SDS011;69200;53.612;-2.416;2023-04-25T10:35:44;3.85;;;1.08;;
79706;SDS011;69200;53.612;-2.416;2023-04-25T10:37:58;4.07;;;1.23;;
79706;SDS011;69200;53.612;-2.416;2023-04-25T10:40:37;5.00;;;1.10;;
79706;SDS011;69200;53.612;-2.416;2023-04-25T10:45:57;4.07;;;1.27;;
79706;SDS011;69200;53.612;-2.416;2023-04-25T10:48:25;4.50;;;1.30;;
79706;SDS011;69200;53.612;-2.416;2023-04-25T10:51:10;5.53;;;1.40;;
79706;SDS011;69200;53.612;-2.416;2023-04-25T10:53:37;5.38;;;1.38;;
79706;SDS011;69200;53.612;-2.416;2023-04-25T10:59:16;7.60;;;2.50;;
79706;SDS011;69200;53.612;-2.416;2023-04-25T11:01:44;5.05;;;1.58;;
79706;SDS011;69200;53.612;-2.416;2023-04-25T11:09:14;6.77;;;1.63;;
79706;SDS011;69200;53.612;-2.416;2023-04-25T11:11:40;6.63;;;1.70;;
79706;SDS011;69200;53.612;-2.416;2023-04-25T11:14:06;4.30;;;1.60;;
79706;SDS011;69200;53.612;-2.416;2023-04-25T11:16:31;3.67;;;1.30;;
79706;SDS011;69200;53.612;-2.416;2023-04-25T11:18:57;4.40;;;1.20;;
79706;SDS011;69200;53.612;-2.416;2023-04-25T11:21:25;3.58;;;1.30;;
79706;SDS011;69200;53.612;-2.416;2023-04-25T11:23:53;3.70;;;1.23;;
79706;SDS011;69200;53.612;-2.416;2023-04-25T11:26:19;3.20;;;0.88;;
79706;SDS011;69200;53.612;-2.416;2023-04-25T11:28:45;6.35;;;1.38;;
79706;SDS011;69200;53.612;-2.416;2023-04-25T11:31:11;7.70;;;2.00;;
79706;SDS011;69200;53.612;-2.416;2023-04-25T11:33:37;3.33;;;0.95;;
79706;SDS011;69200;53.612;-2.416;2023-04-25T11:36:02;3.93;;;1.30;;
79706;SDS011;69200;53.612;-2.416;2023-04-25T11:38:28;6.57;;;1.70;;
79706;SDS011;69200;53.612;-2.416;2023-04-25T11:40:53;5.28;;;1.20;;
79706;SDS011;69200;53.612;-2.416;2023-04-25T11:43:20;5.95;;;1.45;;
79706;SDS011;69200;53.612;-2.416;2023-04-25T11:45:48;3.60;;;1.20;;
79706;SDS011;69200;53.612;-2.416;2023-04-25T11:48:15;4.53;;;1.60;;
79706;SDS011;69200;53.612;-2.416;2023-04-25T11:50:41;4.25;;;1.35;;
79706;SDS011;69200;53.612;-2.416;2023-04-25T11:53:07;5.22;;;1.45;;
79706;SDS011;69200;53.612;-2.416;2023-04-25T11:55:33;6.95;;;1.27;;
79706;SDS011;69200;53.612;-2.416;2023-04-25T11:57:59;7.63;;;1.50;;
79706;SDS011;69200;53.612;-2.416;2023-04-25T12:00:25;4.57;;;1.38;;
79706;SDS011;69200;53.612;-2.416;2023-04-25T12:02:52;5.88;;;1.40;;
79706;SDS011;69200;53.612;-2.416;2023-04-25T12:05:19;5.50;;;1.30;;
79706;SDS011;69200;53.612;-2.416;2023-04-25T12:07:48;4.00;;;1.13;;
79706;SDS011;69200;53.612;-2.416;2023-04-25T12:10:14;5.10;;;1.40;;
79706;SDS011;69200;53.612;-2.416;2023-04-25T12:12:41;4.63;;;1.10;;
79706;SDS011;69200;53.612;-2.416;2023-04-25T12:17:44;5.95;;;1.60;;
79706;SDS011;69200;53.612;-2.416;2023-04-25T12:20:14;3.83;;;1.10;;
79706;SDS011;69200;53.612;-2.416;2023-04-25T12:22:42;3.60;;;1.23;;
79706;SDS011;69200;53.612;-2.416;2023-04-25T12:25:12;4.85;;;1.40;;
79706;SDS011;69200;53.612;-2.416;2023-04-25T12:27:39;4.78;;;1.27;;
79706;SDS011;69200;53.612;-2.416;2023-04-25T12:30:07;3.60;;;1.40;;
79706;SDS011;69200;53.612;-2.416;2023-04-25T12:32:33;4.45;;;1.17;;
79706;SDS011;69200;53.612;-2.416;2023-04-25T12:34:59;5.43;;;1.40;;
79706;SDS011;69200;53.612;-2.416;2023-04-25T12:37:24;4.07;;;1.25;;
79706;SDS011;69200;53.612;-2.416;2023-04-25T12:39:49;3.90;;;1.35;;
79706;SDS011;69200;53.612;-2.416;2023-04-25T12:42:15;5.45;;;1.70;;
79706;SDS011;69200;53.612;-2.416;2023-04-25T12:44:40;2.65;;;0.98;;
79706;SDS011;69200;53.612;-2.416;2023-04-25T12:47:06;8.30;;;1.50;;
79706;SDS011;69200;53.612;-2.416;2023-04-25T12:49:31;5.78;;;1.40;;
79706;SDS011;69200;53.612;-2.416;2023-04-25T12:51:58;5.65;;;1.30;;
79706;SDS011;69200;53.612;-2.416;2023-04-25T12:54:23;5.93;;;1.42;;
79706;SDS011;69200;53.612;-2.416;2023-04-25T12:56:49;8.02;;;1.58;;
79706;SDS011;69200;53.612;-2.416;2023-04-25T12:59:16;4.47;;;1.33;;
79706;SDS011;69200;53.612;-2.416;2023-04-25T13:01:41;4.90;;;1.23;;
79706;SDS011;69200;53.612;-2.416;2023-04-25T13:04:07;3.55;;;1.27;;
79706;SDS011;69200;53.612;-2.416;2023-04-25T13:06:33;4.90;;;1.20;;
79706;SDS011;69200;53.612;-2.416;2023-04-25T13:08:58;8.07;;;1.58;;
79706;SDS011;69200;53.612;-2.416;2023-04-25T13:11:23;5.20;;;1.40;;
79706;SDS011;69200;53.612;-2.416;2023-04-25T13:13:49;4.03;;;1.33;;
79706;SDS011;69200;53.612;-2.416;2023-04-25T13:16:15;4.13;;;1.20;;
79706;SDS011;69200;53.612;-2.416;2023-04-25T13:18:40;3.63;;;1.10;;
79706;SDS011;69200;53.612;-2.416;2023-04-25T13:21:06;4.30;;;1.40;;
79706;SDS011;69200;53.612;-2.416;2023-04-25T13:23:31;4.97;;;1.52;;
79706;SDS011;69200;53.612;-2.416;2023-04-25T13:25:57;4.40;;;1.60;;
79706;SDS011;69200;53.612;-2.416;2023-04-25T13:28:23;5.47;;;1.70;;
79706;SDS011;69200;53.612;-2.416;2023-04-25T13:30:51;5.43;;;1.77;;
79706;SDS011;69200;53.612;-2.416;2023-04-25T13:33:17;4.85;;;2.10;;
79706;SDS011;69200;53.612;-2.416;2023-04-25T13:35:43;6.53;;;1.50;;
79706;SDS011;69200;53.612;-2.416;2023-04-25T13:38:12;4.65;;;1.40;;
79706;SDS011;69200;53.612;-2.416;2023-04-25T13:40:37;4.70;;;1.60;;
79706;SDS011;69200;53.612;-2.416;2023-04-25T13:43:02;5.07;;;1.63;;
79706;SDS011;69200;53.612;-2.416;2023-04-25T13:45:28;4.60;;;1.50;;
79706;SDS011;69200;53.612;-2.416;2023-04-25T13:47:53;4.18;;;1.50;;
79706;SDS011;69200;53.612;-2.416;2023-04-25T13:50:19;5.60;;;1.77;;
79706;SDS011;69200;53.612;-2.416;2023-04-25T13:52:45;6.78;;;1.42;;
79706;SDS011;69200;53.612;-2.416;2023-04-25T13:55:10;4.35;;;1.52;;
79706;SDS011;69200;53.612;-2.416;2023-04-25T13:57:36;4.60;;;1.50;;
79706;SDS011;69200;53.612;-2.416;2023-04-25T14:00:03;7.00;;;1.65;;
79706;SDS011;69200;53.612;-2.416;2023-04-25T14:02:33;4.65;;;1.50;;
79706;SDS011;69200;53.612;-2.416;2023-04-25T14:04:59;4.95;;;1.70;;
79706;SDS011;69200;53.612;-2.416;2023-04-25T14:07:25;4.68;;;1.88;;
79706;SDS011;69200;53.612;-2.416;2023-04-25T14:09:51;5.35;;;1.52;;
79706;SDS011;69200;53.612;-2.416;2023-04-25T14:12:16;7.07;;;1.63;;
79706;SDS011;69200;53.612;-2.416;2023-04-25T14:14:42;5.45;;;1.73;;
79706;SDS011;69200;53.612;-2.416;2023-04-25T14:17:08;4.73;;;1.60;;
79706;SDS011;69200;53.612;-2.416;2023-04-25T14:19:33;5.93;;;1.70;;
79706;SDS011;69200;53.612;-2.416;2023-04-25T14:21:59;5.70;;;1.92;;
79706;SDS011;69200;53.612;-2.416;2023-04-25T14:24:24;6.07;;;1.52;;
79706;SDS011;69200;53.612;-2.416;2023-04-25T14:26:50;4.95;;;1.42;;
79706;SDS011;69200;53.612;-2.416;2023-04-25T14:29:15;4.93;;;1.73;;
79706;SDS011;69200;53.612;-2.416;2023-04-25T14:31:41;4.70;;;1.35;;
79706;SDS011;69200;53.612;-2.416;2023-04-25T14:34:06;7.10;;;1.70;;
79706;SDS011;69200;53.612;-2.416;2023-04-25T14:36:33;4.03;;;1.40;;
79706;SDS011;69200;53.612;-2.416;2023-04-25T14:38:59;6.85;;;1.80;;
79706;SDS011;69200;53.612;-2.416;2023-04-25T14:41:25;5.65;;;1.60;;
79706;SDS011;69200;53.612;-2.416;2023-04-25T14:43:51;5.65;;;1.40;;
79706;SDS011;69200;53.612;-2.416;2023-04-25T14:46:17;4.45;;;1.38;;
79706;SDS011;69200;53.612;-2.416;2023-04-25T14:48:43;6.85;;;1.63;;